sensor_id;sensor_type;location;lat;lon;timestamp;P1;durP1;ratioP1;P2;durP2;ratioP2
56073;SDS011;41950;55.840;37.442;2023-07-31T00:01:55;8.88;;;5.65;;
56073;SDS011;41950;55.840;37.442;2023-07-31T00:04:20;9.60;;;6.18;;
56073;SDS011;41950;55.840;37.442;2023-07-31T00:06:46;9.57;;;5.97;;
56073;SDS011;41950;55.840;37.442;2023-07-31T00:09:12;9.35;;;5.70;;
56073;SDS011;41950;55.840;37.442;2023-07-31T00:11:38;12.85;;;6.82;;
56073;SDS011;41950;55.840;37.442;2023-07-31T00:14:03;11.07;;;5.80;;
56073;SDS011;41950;55.840;37.442;2023-07-31T00:16:29;9.27;;;5.88;;
56073;SDS011;41950;55.840;37.442;2023-07-31T00:18:55;8.60;;;5.28;;
56073;SDS011;41950;55.840;37.442;2023-07-31T00:21:20;9.73;;;6.28;;
56073;SDS011;41950;55.840;37.442;2023-07-31T00:23:46;12.02;;;6.13;;
56073;SDS011;41950;55.840;37.442;2023-07-31T00:26:12;10.25;;;5.70;;
56073;SDS011;41950;55.840;37.442;2023-07-31T00:28:38;9.57;;;6.40;;
56073;SDS011;41950;55.840;37.442;2023-07-31T00:31:03;10.43;;;6.35;;
56073;SDS011;41950;55.840;37.442;2023-07-31T00:33:30;9.02;;;6.00;;
56073;SDS011;41950;55.840;37.442;2023-07-31T00:35:57;10.02;;;5.60;;
56073;SDS011;41950;55.840;37.442;2023-07-31T00:38:23;9.00;;;5.50;;
56073;SDS011;41950;55.840;37.442;2023-07-31T00:40:48;9.10;;;6.15;;
56073;SDS011;41950;55.840;37.442;2023-07-31T00:43:14;10.07;;;6.15;;
56073;SDS011;41950;55.840;37.442;2023-07-31T00:45:40;8.77;;;5.93;;
56073;SDS011;41950;55.840;37.442;2023-07-31T00:48:07;8.88;;;5.97;;
56073;SDS011;41950;55.840;37.442;2023-07-31T00:50:33;9.15;;;5.82;;
56073;SDS011;41950;55.840;37.442;2023-07-31T00:53:00;9.80;;;6.07;;
56073;SDS011;41950;55.840;37.442;2023-07-31T00:55:26;7.40;;;5.90;;
56073;SDS011;41950;55.840;37.442;2023-07-31T00:57:52;10.35;;;6.07;;
56073;SDS011;41950;55.840;37.442;2023-07-31T01:00:20;8.85;;;6.25;;
56073;SDS011;41950;55.840;37.442;2023-07-31T01:02:47;10.80;;;5.70;;
56073;SDS011;41950;55.840;37.442;2023-07-31T01:05:14;8.95;;;6.20;;
56073;SDS011;41950;55.840;37.442;2023-07-31T01:07:51;8.80;;;5.70;;
56073;SDS011;41950;55.840;37.442;2023-07-31T01:10:30;8.05;;;5.32;;
56073;SDS011;41950;55.840;37.442;2023-07-31T01:13:02;7.38;;;6.15;;
56073;SDS011;41950;55.840;37.442;2023-07-31T01:15:29;7.50;;;6.22;;
56073;SDS011;41950;55.840;37.442;2023-07-31T01:17:54;8.52;;;6.15;;
56073;SDS011;41950;55.840;37.442;2023-07-31T01:20:23;9.63;;;6.03;;
56073;SDS011;41950;55.840;37.442;2023-07-31T01:28:23;8.40;;;5.93;;
56073;SDS011;41950;55.840;37.442;2023-07-31T01:30:55;7.07;;;5.80;;
56073;SDS011;41950;55.840;37.442;2023-07-31T01:33:25;7.50;;;5.60;;
56073;SDS011;41950;55.840;37.442;2023-07-31T01:35:51;7.93;;;5.68;;
56073;SDS011;41950;55.840;37.442;2023-07-31T01:38:20;9.00;;;5.55;;
56073;SDS011;41950;55.840;37.442;2023-07-31T01:40:50;6.90;;;5.40;;
56073;SDS011;41950;55.840;37.442;2023-07-31T01:43:17;8.18;;;5.32;;
56073;SDS011;41950;55.840;37.442;2023-07-31T01:45:43;9.73;;;5.65;;
56073;SDS011;41950;55.840;37.442;2023-07-31T01:48:09;5.85;;;4.95;;
56073;SDS011;41950;55.840;37.442;2023-07-31T01:50:34;9.25;;;5.03;;
56073;SDS011;41950;55.840;37.442;2023-07-31T01:53:00;7.60;;;5.00;;
56073;SDS011;41950;55.840;37.442;2023-07-31T01:55:26;8.43;;;4.57;;
56073;SDS011;41950;55.840;37.442;2023-07-31T01:57:51;8.63;;;5.05;;
56073;SDS011;41950;55.840;37.442;2023-07-31T02:00:17;7.00;;;4.78;;
56073;SDS011;41950;55.840;37.442;2023-07-31T02:02:43;6.82;;;5.20;;
56073;SDS011;41950;55.840;37.442;2023-07-31T02:05:09;8.13;;;4.72;;
56073;SDS011;41950;55.840;37.442;2023-07-31T02:07:35;7.07;;;4.55;;
56073;SDS011;41950;55.840;37.442;2023-07-31T02:10:00;7.72;;;4.85;;
56073;SDS011;41950;55.840;37.442;2023-07-31T02:12:26;9.05;;;4.85;;
56073;SDS011;41950;55.840;37.442;2023-07-31T02:14:52;6.03;;;4.50;;
56073;SDS011;41950;55.840;37.442;2023-07-31T02:17:18;6.45;;;4.50;;
56073;SDS011;41950;55.840;37.442;2023-07-31T02:20:04;6.38;;;4.47;;
56073;SDS011;41950;55.840;37.442;2023-07-31T02:22:32;6.95;;;4.55;;
56073;SDS011;41950;55.840;37.442;2023-07-31T02:24:58;5.68;;;4.72;;
56073;SDS011;41950;55.840;37.442;2023-07-31T02:27:23;7.45;;;4.80;;
56073;SDS011;41950;55.840;37.442;2023-07-31T02:29:52;7.05;;;4.60;;
56073;SDS011;41950;55.840;37.442;2023-07-31T02:32:19;7.57;;;5.25;;
56073;SDS011;41950;55.840;37.442;2023-07-31T02:34:45;8.68;;;4.60;;
56073;SDS011;41950;55.840;37.442;2023-07-31T02:37:10;8.70;;;4.93;;
56073;SDS011;41950;55.840;37.442;2023-07-31T02:39:36;6.05;;;4.57;;
56073;SDS011;41950;55.840;37.442;2023-07-31T02:42:02;5.95;;;4.53;;
56073;SDS011;41950;55.840;37.442;2023-07-31T02:44:28;6.10;;;4.30;;
56073;SDS011;41950;55.840;37.442;2023-07-31T02:46:53;7.00;;;4.85;;
56073;SDS011;41950;55.840;37.442;2023-07-31T02:49:19;8.02;;;4.65;;
56073;SDS011;41950;55.840;37.442;2023-07-31T02:51:45;6.95;;;4.50;;
56073;SDS011;41950;55.840;37.442;2023-07-31T02:54:10;7.32;;;4.75;;
56073;SDS011;41950;55.840;37.442;2023-07-31T02:56:36;6.68;;;4.13;;
56073;SDS011;41950;55.840;37.442;2023-07-31T02:59:01;6.20;;;4.85;;
56073;SDS011;41950;55.840;37.442;2023-07-31T03:01:27;8.05;;;4.55;;
56073;SDS011;41950;55.840;37.442;2023-07-31T03:03:53;7.40;;;4.35;;
56073;SDS011;41950;55.840;37.442;2023-07-31T03:06:18;7.40;;;4.45;;
56073;SDS011;41950;55.840;37.442;2023-07-31T03:08:44;8.10;;;4.32;;
56073;SDS011;41950;55.840;37.442;2023-07-31T03:11:10;5.47;;;4.35;;
56073;SDS011;41950;55.840;37.442;2023-07-31T03:13:36;8.38;;;5.00;;
56073;SDS011;41950;55.840;37.442;2023-07-31T03:16:01;8.82;;;4.50;;
56073;SDS011;41950;55.840;37.442;2023-07-31T03:18:27;7.18;;;4.63;;
56073;SDS011;41950;55.840;37.442;2023-07-31T03:20:52;6.45;;;4.70;;
56073;SDS011;41950;55.840;37.442;2023-07-31T03:23:18;8.60;;;4.28;;
56073;SDS011;41950;55.840;37.442;2023-07-31T03:25:57;7.03;;;4.68;;
56073;SDS011;41950;55.840;37.442;2023-07-31T03:28:22;7.43;;;4.68;;
56073;SDS011;41950;55.840;37.442;2023-07-31T03:30:48;5.65;;;4.50;;
56073;SDS011;41950;55.840;37.442;2023-07-31T03:33:14;8.05;;;5.35;;
56073;SDS011;41950;55.840;37.442;2023-07-31T03:35:39;8.52;;;4.82;;
56073;SDS011;41950;55.840;37.442;2023-07-31T03:38:05;8.77;;;5.47;;
56073;SDS011;41950;55.840;37.442;2023-07-31T03:40:30;9.23;;;5.13;;
56073;SDS011;41950;55.840;37.442;2023-07-31T03:42:56;8.25;;;4.85;;
56073;SDS011;41950;55.840;37.442;2023-07-31T03:45:22;7.60;;;4.60;;
56073;SDS011;41950;55.840;37.442;2023-07-31T03:47:47;6.85;;;4.57;;
56073;SDS011;41950;55.840;37.442;2023-07-31T03:50:13;5.88;;;4.05;;
56073;SDS011;41950;55.840;37.442;2023-07-31T03:52:39;4.85;;;3.85;;
56073;SDS011;41950;55.840;37.442;2023-07-31T03:55:04;6.30;;;4.00;;
56073;SDS011;41950;55.840;37.442;2023-07-31T03:57:30;6.30;;;4.10;;
56073;SDS011;41950;55.840;37.442;2023-07-31T03:59:57;8.60;;;4.28;;
56073;SDS011;41950;55.840;37.442;2023-07-31T04:02:23;6.97;;;4.20;;
56073;SDS011;41950;55.840;37.442;2023-07-31T04:04:49;5.95;;;3.60;;
56073;SDS011;41950;55.840;37.442;2023-07-31T04:07:15;8.13;;;3.65;;
56073;SDS011;41950;55.840;37.442;2023-07-31T04:09:40;6.07;;;3.70;;
56073;SDS011;41950;55.840;37.442;2023-07-31T04:12:06;5.57;;;3.50;;
56073;SDS011;41950;55.840;37.442;2023-07-31T04:14:32;6.97;;;3.85;;
56073;SDS011;41950;55.840;37.442;2023-07-31T04:16:57;8.13;;;3.80;;
56073;SDS011;41950;55.840;37.442;2023-07-31T04:19:23;5.78;;;3.70;;
56073;SDS011;41950;55.840;37.442;2023-07-31T04:21:49;7.03;;;3.10;;
56073;SDS011;41950;55.840;37.442;2023-07-31T04:24:15;4.93;;;3.28;;
56073;SDS011;41950;55.840;37.442;2023-07-31T04:26:41;6.63;;;3.20;;
56073;SDS011;41950;55.840;37.442;2023-07-31T04:29:06;6.55;;;3.05;;
56073;SDS011;41950;55.840;37.442;2023-07-31T04:31:33;5.75;;;3.05;;
56073;SDS011;41950;55.840;37.442;2023-07-31T04:33:59;6.22;;;2.67;;
56073;SDS011;41950;55.840;37.442;2023-07-31T04:36:24;5.70;;;2.90;;
56073;SDS011;41950;55.840;37.442;2023-07-31T04:38:50;5.20;;;2.65;;
56073;SDS011;41950;55.840;37.442;2023-07-31T04:41:16;4.88;;;2.85;;
56073;SDS011;41950;55.840;37.442;2023-07-31T04:43:42;7.32;;;3.30;;
56073;SDS011;41950;55.840;37.442;2023-07-31T04:46:07;7.28;;;3.72;;
56073;SDS011;41950;55.840;37.442;2023-07-31T04:48:33;7.88;;;3.67;;
56073;SDS011;41950;55.840;37.442;2023-07-31T04:50:58;6.53;;;3.78;;
56073;SDS011;41950;55.840;37.442;2023-07-31T04:53:24;6.95;;;3.60;;
56073;SDS011;41950;55.840;37.442;2023-07-31T04:55:50;7.63;;;4.05;;
56073;SDS011;41950;55.840;37.442;2023-07-31T04:58:15;6.53;;;4.35;;
56073;SDS011;41950;55.840;37.442;2023-07-31T05:00:41;7.18;;;3.80;;
56073;SDS011;41950;55.840;37.442;2023-07-31T05:03:07;6.60;;;3.72;;
56073;SDS011;41950;55.840;37.442;2023-07-31T05:05:32;8.48;;;3.42;;
56073;SDS011;41950;55.840;37.442;2023-07-31T05:07:58;6.47;;;3.85;;
56073;SDS011;41950;55.840;37.442;2023-07-31T05:10:24;6.95;;;3.33;;
56073;SDS011;41950;55.840;37.442;2023-07-31T05:12:49;7.57;;;3.50;;
56073;SDS011;41950;55.840;37.442;2023-07-31T05:15:15;7.10;;;3.47;;
56073;SDS011;41950;55.840;37.442;2023-07-31T05:17:41;6.10;;;3.88;;
56073;SDS011;41950;55.840;37.442;2023-07-31T05:20:07;4.60;;;3.50;;
56073;SDS011;41950;55.840;37.442;2023-07-31T05:22:33;6.03;;;3.17;;
56073;SDS011;41950;55.840;37.442;2023-07-31T05:24:58;5.70;;;3.40;;
56073;SDS011;41950;55.840;37.442;2023-07-31T05:27:25;7.70;;;3.60;;
56073;SDS011;41950;55.840;37.442;2023-07-31T05:29:50;5.13;;;3.20;;
56073;SDS011;41950;55.840;37.442;2023-07-31T05:32:17;5.35;;;3.28;;
56073;SDS011;41950;55.840;37.442;2023-07-31T05:34:43;6.03;;;3.05;;
56073;SDS011;41950;55.840;37.442;2023-07-31T05:37:09;7.28;;;3.75;;
56073;SDS011;41950;55.840;37.442;2023-07-31T05:39:36;8.25;;;3.60;;
56073;SDS011;41950;55.840;37.442;2023-07-31T05:42:02;6.10;;;3.38;;
56073;SDS011;41950;55.840;37.442;2023-07-31T05:44:28;6.60;;;3.47;;
56073;SDS011;41950;55.840;37.442;2023-07-31T05:46:54;7.63;;;3.35;;
56073;SDS011;41950;55.840;37.442;2023-07-31T05:49:19;6.70;;;3.20;;
56073;SDS011;41950;55.840;37.442;2023-07-31T05:51:45;9.40;;;3.25;;
56073;SDS011;41950;55.840;37.442;2023-07-31T05:54:11;5.97;;;3.00;;
56073;SDS011;41950;55.840;37.442;2023-07-31T05:56:36;6.55;;;2.90;;
56073;SDS011;41950;55.840;37.442;2023-07-31T05:59:02;5.97;;;3.08;;
56073;SDS011;41950;55.840;37.442;2023-07-31T06:01:28;6.97;;;3.13;;
56073;SDS011;41950;55.840;37.442;2023-07-31T06:03:54;6.68;;;2.72;;
56073;SDS011;41950;55.840;37.442;2023-07-31T06:06:19;5.60;;;2.70;;
56073;SDS011;41950;55.840;37.442;2023-07-31T06:08:45;7.43;;;2.40;;
56073;SDS011;41950;55.840;37.442;2023-07-31T06:11:11;6.68;;;2.17;;
56073;SDS011;41950;55.840;37.442;2023-07-31T06:13:37;4.78;;;2.25;;
56073;SDS011;41950;55.840;37.442;2023-07-31T06:16:02;7.85;;;2.42;;
56073;SDS011;41950;55.840;37.442;2023-07-31T06:18:32;10.50;;;2.53;;
56073;SDS011;41950;55.840;37.442;2023-07-31T06:20:58;6.53;;;2.50;;
56073;SDS011;41950;55.840;37.442;2023-07-31T06:23:24;6.75;;;2.30;;
56073;SDS011;41950;55.840;37.442;2023-07-31T06:25:49;5.18;;;2.10;;
56073;SDS011;41950;55.840;37.442;2023-07-31T06:28:16;5.80;;;2.50;;
56073;SDS011;41950;55.840;37.442;2023-07-31T06:30:42;4.90;;;2.30;;
56073;SDS011;41950;55.840;37.442;2023-07-31T06:33:08;5.10;;;2.25;;
56073;SDS011;41950;55.840;37.442;2023-07-31T06:35:34;5.80;;;2.40;;
56073;SDS011;41950;55.840;37.442;2023-07-31T06:38:00;5.18;;;2.50;;
56073;SDS011;41950;55.840;37.442;2023-07-31T06:40:27;3.83;;;2.03;;
56073;SDS011;41950;55.840;37.442;2023-07-31T06:42:54;4.50;;;2.08;;
56073;SDS011;41950;55.840;37.442;2023-07-31T06:45:19;5.85;;;2.10;;
56073;SDS011;41950;55.840;37.442;2023-07-31T06:47:45;6.65;;;2.35;;
56073;SDS011;41950;55.840;37.442;2023-07-31T06:50:11;4.75;;;1.88;;
56073;SDS011;41950;55.840;37.442;2023-07-31T06:52:36;5.55;;;2.00;;
56073;SDS011;41950;55.840;37.442;2023-07-31T06:55:03;5.97;;;2.15;;
56073;SDS011;41950;55.840;37.442;2023-07-31T06:57:43;4.40;;;1.70;;
56073;SDS011;41950;55.840;37.442;2023-07-31T07:00:09;4.10;;;1.75;;
56073;SDS011;41950;55.840;37.442;2023-07-31T07:02:35;3.97;;;1.70;;
56073;SDS011;41950;55.840;37.442;2023-07-31T07:05:01;5.60;;;1.90;;
56073;SDS011;41950;55.840;37.442;2023-07-31T07:07:27;4.05;;;1.60;;
56073;SDS011;41950;55.840;37.442;2023-07-31T07:09:53;3.28;;;1.55;;
56073;SDS011;41950;55.840;37.442;2023-07-31T07:12:19;3.72;;;1.40;;
56073;SDS011;41950;55.840;37.442;2023-07-31T07:14:44;3.88;;;1.85;;
56073;SDS011;41950;55.840;37.442;2023-07-31T07:17:13;4.47;;;1.48;;
56073;SDS011;41950;55.840;37.442;2023-07-31T07:19:40;6.32;;;2.72;;
56073;SDS011;41950;55.840;37.442;2023-07-31T07:22:07;2.85;;;1.20;;
56073;SDS011;41950;55.840;37.442;2023-07-31T07:24:32;3.42;;;1.55;;
56073;SDS011;41950;55.840;37.442;2023-07-31T07:26:58;2.97;;;1.40;;
56073;SDS011;41950;55.840;37.442;2023-07-31T07:29:25;3.03;;;1.40;;
56073;SDS011;41950;55.840;37.442;2023-07-31T07:31:51;2.28;;;1.00;;
56073;SDS011;41950;55.840;37.442;2023-07-31T07:34:16;2.80;;;1.20;;
56073;SDS011;41950;55.840;37.442;2023-07-31T07:36:42;1.98;;;1.00;;
56073;SDS011;41950;55.840;37.442;2023-07-31T07:39:09;2.10;;;1.13;;
56073;SDS011;41950;55.840;37.442;2023-07-31T07:41:36;3.92;;;1.20;;
56073;SDS011;41950;55.840;37.442;2023-07-31T07:44:02;2.83;;;1.10;;
56073;SDS011;41950;55.840;37.442;2023-07-31T07:46:27;3.90;;;1.40;;
56073;SDS011;41950;55.840;37.442;2023-07-31T07:48:53;2.58;;;1.20;;
56073;SDS011;41950;55.840;37.442;2023-07-31T07:51:19;5.13;;;1.20;;
56073;SDS011;41950;55.840;37.442;2023-07-31T07:53:44;3.35;;;1.40;;
56073;SDS011;41950;55.840;37.442;2023-07-31T07:56:10;2.10;;;1.02;;
56073;SDS011;41950;55.840;37.442;2023-07-31T07:58:36;2.90;;;1.10;;
56073;SDS011;41950;55.840;37.442;2023-07-31T08:01:03;2.70;;;1.05;;
56073;SDS011;41950;55.840;37.442;2023-07-31T08:03:28;4.10;;;1.33;;
56073;SDS011;41950;55.840;37.442;2023-07-31T08:05:57;3.65;;;0.95;;
56073;SDS011;41950;55.840;37.442;2023-07-31T08:08:24;2.70;;;1.20;;
56073;SDS011;41950;55.840;37.442;2023-07-31T08:10:50;2.53;;;1.40;;
56073;SDS011;41950;55.840;37.442;2023-07-31T08:13:15;2.90;;;1.30;;
56073;SDS011;41950;55.840;37.442;2023-07-31T08:15:41;2.35;;;1.20;;
56073;SDS011;41950;55.840;37.442;2023-07-31T08:18:08;2.38;;;1.08;;
56073;SDS011;41950;55.840;37.442;2023-07-31T08:20:34;2.78;;;1.23;;
56073;SDS011;41950;55.840;37.442;2023-07-31T08:23:00;3.42;;;1.27;;
56073;SDS011;41950;55.840;37.442;2023-07-31T08:25:26;3.05;;;1.45;;
56073;SDS011;41950;55.840;37.442;2023-07-31T08:27:52;2.70;;;1.33;;
56073;SDS011;41950;55.840;37.442;2023-07-31T08:30:18;3.80;;;1.30;;
56073;SDS011;41950;55.840;37.442;2023-07-31T08:32:44;3.25;;;1.30;;
56073;SDS011;41950;55.840;37.442;2023-07-31T08:35:10;3.67;;;1.30;;
56073;SDS011;41950;55.840;37.442;2023-07-31T08:37:37;4.15;;;1.27;;
56073;SDS011;41950;55.840;37.442;2023-07-31T08:40:03;2.80;;;1.20;;
56073;SDS011;41950;55.840;37.442;2023-07-31T08:42:31;3.30;;;1.40;;
56073;SDS011;41950;55.840;37.442;2023-07-31T08:44:57;4.45;;;1.30;;
56073;SDS011;41950;55.840;37.442;2023-07-31T08:47:25;2.95;;;1.38;;
56073;SDS011;41950;55.840;37.442;2023-07-31T08:49:52;4.28;;;2.10;;
56073;SDS011;41950;55.840;37.442;2023-07-31T08:52:18;3.55;;;1.27;;
56073;SDS011;41950;55.840;37.442;2023-07-31T08:54:44;3.00;;;1.40;;
56073;SDS011;41950;55.840;37.442;2023-07-31T08:57:09;3.58;;;1.50;;
56073;SDS011;41950;55.840;37.442;2023-07-31T08:59:37;3.30;;;1.50;;
56073;SDS011;41950;55.840;37.442;2023-07-31T09:02:07;4.65;;;1.50;;
56073;SDS011;41950;55.840;37.442;2023-07-31T09:04:34;2.67;;;1.40;;
56073;SDS011;41950;55.840;37.442;2023-07-31T09:07:01;4.28;;;1.58;;
56073;SDS011;41950;55.840;37.442;2023-07-31T09:09:30;3.67;;;1.92;;
56073;SDS011;41950;55.840;37.442;2023-07-31T09:14:34;4.68;;;1.60;;
56073;SDS011;41950;55.840;37.442;2023-07-31T09:17:02;2.95;;;1.48;;
56073;SDS011;41950;55.840;37.442;2023-07-31T09:19:29;3.30;;;1.35;;
56073;SDS011;41950;55.840;37.442;2023-07-31T09:21:59;3.42;;;2.00;;
56073;SDS011;41950;55.840;37.442;2023-07-31T09:24:29;2.60;;;1.30;;
56073;SDS011;41950;55.840;37.442;2023-07-31T09:26:56;3.17;;;1.50;;
56073;SDS011;41950;55.840;37.442;2023-07-31T09:29:26;4.35;;;1.83;;
56073;SDS011;41950;55.840;37.442;2023-07-31T09:31:54;4.45;;;1.52;;
56073;SDS011;41950;55.840;37.442;2023-07-31T09:34:27;5.03;;;1.60;;
56073;SDS011;41950;55.840;37.442;2023-07-31T09:36:57;4.35;;;1.40;;
56073;SDS011;41950;55.840;37.442;2023-07-31T09:39:26;3.90;;;1.52;;
56073;SDS011;41950;55.840;37.442;2023-07-31T09:41:55;4.25;;;1.60;;
56073;SDS011;41950;55.840;37.442;2023-07-31T09:44:36;2.67;;;1.42;;
56073;SDS011;41950;55.840;37.442;2023-07-31T09:47:03;4.57;;;1.60;;
56073;SDS011;41950;55.840;37.442;2023-07-31T09:49:29;3.47;;;1.50;;
56073;SDS011;41950;55.840;37.442;2023-07-31T09:51:55;2.78;;;1.33;;
56073;SDS011;41950;55.840;37.442;2023-07-31T09:54:20;3.00;;;1.50;;
56073;SDS011;41950;55.840;37.442;2023-07-31T09:56:47;3.80;;;1.50;;
56073;SDS011;41950;55.840;37.442;2023-07-31T09:59:17;2.83;;;1.55;;
56073;SDS011;41950;55.840;37.442;2023-07-31T10:01:45;4.22;;;1.42;;
56073;SDS011;41950;55.840;37.442;2023-07-31T10:04:12;2.90;;;1.45;;
56073;SDS011;41950;55.840;37.442;2023-07-31T10:06:39;3.97;;;1.90;;
56073;SDS011;41950;55.840;37.442;2023-07-31T10:09:11;3.83;;;1.80;;
56073;SDS011;41950;55.840;37.442;2023-07-31T10:11:42;3.85;;;1.73;;
56073;SDS011;41950;55.840;37.442;2023-07-31T10:14:15;4.15;;;1.73;;
56073;SDS011;41950;55.840;37.442;2023-07-31T10:16:45;3.70;;;1.63;;
56073;SDS011;41950;55.840;37.442;2023-07-31T10:19:11;5.78;;;1.67;;
56073;SDS011;41950;55.840;37.442;2023-07-31T10:21:40;3.30;;;1.50;;
56073;SDS011;41950;55.840;37.442;2023-07-31T10:24:09;3.03;;;1.50;;
56073;SDS011;41950;55.840;37.442;2023-07-31T10:26:37;3.88;;;1.50;;
56073;SDS011;41950;55.840;37.442;2023-07-31T10:29:04;3.22;;;1.40;;
56073;SDS011;41950;55.840;37.442;2023-07-31T10:31:31;3.55;;;1.50;;
56073;SDS011;41950;55.840;37.442;2023-07-31T10:33:58;4.18;;;1.70;;
56073;SDS011;41950;55.840;37.442;2023-07-31T10:36:26;2.90;;;1.50;;
56073;SDS011;41950;55.840;37.442;2023-07-31T10:38:52;2.75;;;1.40;;
56073;SDS011;41950;55.840;37.442;2023-07-31T10:41:18;2.70;;;1.50;;
56073;SDS011;41950;55.840;37.442;2023-07-31T10:43:45;3.72;;;1.65;;
56073;SDS011;41950;55.840;37.442;2023-07-31T10:46:12;2.90;;;1.65;;
56073;SDS011;41950;55.840;37.442;2023-07-31T10:48:39;2.83;;;1.40;;
56073;SDS011;41950;55.840;37.442;2023-07-31T10:51:07;2.67;;;1.30;;
56073;SDS011;41950;55.840;37.442;2023-07-31T10:53:35;2.72;;;1.73;;
56073;SDS011;41950;55.840;37.442;2023-07-31T10:56:05;3.22;;;1.45;;
56073;SDS011;41950;55.840;37.442;2023-07-31T10:58:32;2.85;;;1.70;;
56073;SDS011;41950;55.840;37.442;2023-07-31T11:00:59;3.67;;;1.60;;
56073;SDS011;41950;55.840;37.442;2023-07-31T11:03:26;3.40;;;1.67;;
56073;SDS011;41950;55.840;37.442;2023-07-31T11:06:06;3.23;;;1.90;;
56073;SDS011;41950;55.840;37.442;2023-07-31T11:08:34;3.53;;;1.60;;
56073;SDS011;41950;55.840;37.442;2023-07-31T11:13:31;5.43;;;1.80;;
56073;SDS011;41950;55.840;37.442;2023-07-31T11:15:59;4.30;;;1.83;;
56073;SDS011;41950;55.840;37.442;2023-07-31T11:18:28;2.72;;;1.70;;
56073;SDS011;41950;55.840;37.442;2023-07-31T11:20:54;4.07;;;1.80;;
56073;SDS011;41950;55.840;37.442;2023-07-31T11:23:19;4.43;;;1.80;;
56073;SDS011;41950;55.840;37.442;2023-07-31T11:25:49;4.55;;;1.90;;
56073;SDS011;41950;55.840;37.442;2023-07-31T11:28:17;3.20;;;1.73;;
56073;SDS011;41950;55.840;37.442;2023-07-31T11:30:44;6.50;;;1.92;;
56073;SDS011;41950;55.840;37.442;2023-07-31T11:33:11;3.42;;;1.90;;
56073;SDS011;41950;55.840;37.442;2023-07-31T11:35:43;3.88;;;1.92;;
56073;SDS011;41950;55.840;37.442;2023-07-31T11:38:28;3.85;;;2.00;;
56073;SDS011;41950;55.840;37.442;2023-07-31T11:41:02;4.75;;;1.77;;
56073;SDS011;41950;55.840;37.442;2023-07-31T11:43:29;3.15;;;1.75;;
56073;SDS011;41950;55.840;37.442;2023-07-31T11:45:58;4.40;;;1.70;;
56073;SDS011;41950;55.840;37.442;2023-07-31T11:48:26;3.80;;;1.90;;
56073;SDS011;41950;55.840;37.442;2023-07-31T11:50:59;3.20;;;1.90;;
56073;SDS011;41950;55.840;37.442;2023-07-31T11:53:29;2.92;;;1.65;;
56073;SDS011;41950;55.840;37.442;2023-07-31T11:55:57;5.22;;;2.13;;
56073;SDS011;41950;55.840;37.442;2023-07-31T11:58:24;4.75;;;2.15;;
56073;SDS011;41950;55.840;37.442;2023-07-31T12:00:51;5.95;;;3.83;;
56073;SDS011;41950;55.840;37.442;2023-07-31T12:03:17;3.40;;;2.10;;
56073;SDS011;41950;55.840;37.442;2023-07-31T12:05:43;3.80;;;1.92;;
56073;SDS011;41950;55.840;37.442;2023-07-31T12:08:10;6.45;;;3.88;;
56073;SDS011;41950;55.840;37.442;2023-07-31T12:10:41;5.25;;;2.10;;
56073;SDS011;41950;55.840;37.442;2023-07-31T12:13:08;4.30;;;1.92;;
56073;SDS011;41950;55.840;37.442;2023-07-31T12:15:44;4.03;;;1.88;;
56073;SDS011;41950;55.840;37.442;2023-07-31T12:18:11;4.50;;;1.85;;
56073;SDS011;41950;55.840;37.442;2023-07-31T12:20:40;4.65;;;1.98;;
56073;SDS011;41950;55.840;37.442;2023-07-31T12:23:19;4.57;;;2.15;;
56073;SDS011;41950;55.840;37.442;2023-07-31T12:28:50;3.70;;;2.40;;
56073;SDS011;41950;55.840;37.442;2023-07-31T12:31:17;3.20;;;1.83;;
56073;SDS011;41950;55.840;37.442;2023-07-31T12:33:44;2.90;;;1.77;;
56073;SDS011;41950;55.840;37.442;2023-07-31T12:38:38;4.30;;;2.00;;
56073;SDS011;41950;55.840;37.442;2023-07-31T12:41:04;4.30;;;2.03;;
56073;SDS011;41950;55.840;37.442;2023-07-31T12:43:32;3.25;;;1.90;;
56073;SDS011;41950;55.840;37.442;2023-07-31T12:45:58;4.00;;;1.80;;
56073;SDS011;41950;55.840;37.442;2023-07-31T12:48:24;4.60;;;2.20;;
56073;SDS011;41950;55.840;37.442;2023-07-31T12:50:50;3.70;;;2.20;;
56073;SDS011;41950;55.840;37.442;2023-07-31T12:53:15;3.35;;;1.88;;
56073;SDS011;41950;55.840;37.442;2023-07-31T12:55:41;5.35;;;3.38;;
56073;SDS011;41950;55.840;37.442;2023-07-31T12:58:07;4.82;;;1.90;;
56073;SDS011;41950;55.840;37.442;2023-07-31T13:00:33;3.60;;;1.60;;
56073;SDS011;41950;55.840;37.442;2023-07-31T13:02:59;3.50;;;2.00;;
56073;SDS011;41950;55.840;37.442;2023-07-31T13:05:28;5.68;;;2.13;;
56073;SDS011;41950;55.840;37.442;2023-07-31T13:07:54;4.80;;;2.00;;
56073;SDS011;41950;55.840;37.442;2023-07-31T13:10:21;4.72;;;1.85;;
56073;SDS011;41950;55.840;37.442;2023-07-31T13:12:48;5.82;;;2.15;;
56073;SDS011;41950;55.840;37.442;2023-07-31T13:15:14;4.82;;;1.90;;
56073;SDS011;41950;55.840;37.442;2023-07-31T13:17:39;3.83;;;2.15;;
56073;SDS011;41950;55.840;37.442;2023-07-31T13:20:05;6.07;;;2.50;;
56073;SDS011;41950;55.840;37.442;2023-07-31T13:22:32;5.03;;;2.45;;
56073;SDS011;41950;55.840;37.442;2023-07-31T13:24:58;5.75;;;2.30;;
56073;SDS011;41950;55.840;37.442;2023-07-31T13:27:24;4.45;;;2.28;;
56073;SDS011;41950;55.840;37.442;2023-07-31T13:29:50;4.88;;;2.30;;
56073;SDS011;41950;55.840;37.442;2023-07-31T13:32:17;5.57;;;2.20;;
56073;SDS011;41950;55.840;37.442;2023-07-31T13:34:45;4.88;;;2.28;;
56073;SDS011;41950;55.840;37.442;2023-07-31T13:37:11;8.13;;;2.28;;
56073;SDS011;41950;55.840;37.442;2023-07-31T13:39:37;3.67;;;1.95;;
56073;SDS011;41950;55.840;37.442;2023-07-31T13:42:03;6.82;;;2.05;;
56073;SDS011;41950;55.840;37.442;2023-07-31T13:44:32;6.47;;;2.20;;
56073;SDS011;41950;55.840;37.442;2023-07-31T13:46:58;6.03;;;2.47;;
56073;SDS011;41950;55.840;37.442;2023-07-31T13:49:25;5.53;;;2.20;;
56073;SDS011;41950;55.840;37.442;2023-07-31T13:51:50;7.57;;;2.30;;
56073;SDS011;41950;55.840;37.442;2023-07-31T13:54:16;5.70;;;2.22;;
56073;SDS011;41950;55.840;37.442;2023-07-31T13:56:42;4.13;;;2.20;;
56073;SDS011;41950;55.840;37.442;2023-07-31T13:59:08;4.45;;;2.20;;
56073;SDS011;41950;55.840;37.442;2023-07-31T14:01:34;6.15;;;2.17;;
56073;SDS011;41950;55.840;37.442;2023-07-31T14:03:59;4.88;;;2.20;;
56073;SDS011;41950;55.840;37.442;2023-07-31T14:06:25;4.40;;;2.40;;
56073;SDS011;41950;55.840;37.442;2023-07-31T14:08:51;5.82;;;2.28;;
56073;SDS011;41950;55.840;37.442;2023-07-31T14:11:17;6.97;;;2.40;;
56073;SDS011;41950;55.840;37.442;2023-07-31T14:13:42;6.00;;;2.13;;
56073;SDS011;41950;55.840;37.442;2023-07-31T14:16:08;5.35;;;2.40;;
56073;SDS011;41950;55.840;37.442;2023-07-31T14:18:34;6.68;;;2.40;;
56073;SDS011;41950;55.840;37.442;2023-07-31T14:20:59;5.70;;;2.50;;
56073;SDS011;41950;55.840;37.442;2023-07-31T14:23:25;4.53;;;2.08;;
56073;SDS011;41950;55.840;37.442;2023-07-31T14:25:51;5.32;;;2.10;;
56073;SDS011;41950;55.840;37.442;2023-07-31T14:28:16;5.10;;;2.25;;
56073;SDS011;41950;55.840;37.442;2023-07-31T14:30:42;4.72;;;2.40;;
56073;SDS011;41950;55.840;37.442;2023-07-31T14:33:08;3.60;;;2.15;;
56073;SDS011;41950;55.840;37.442;2023-07-31T14:35:34;5.72;;;2.17;;
56073;SDS011;41950;55.840;37.442;2023-07-31T14:38:01;4.63;;;2.33;;
56073;SDS011;41950;55.840;37.442;2023-07-31T14:40:27;6.65;;;2.45;;
56073;SDS011;41950;55.840;37.442;2023-07-31T14:42:56;4.57;;;2.35;;
56073;SDS011;41950;55.840;37.442;2023-07-31T14:45:21;4.53;;;1.85;;
56073;SDS011;41950;55.840;37.442;2023-07-31T14:47:47;5.35;;;2.33;;